Durango, Texas
Current Conditions -  °F | °C
As of 10:55 AM on Thursday 30 Oct 2014 (Local Time) from KTPL Reporting Station
Broken Clouds Broken Clouds  
Wind Chill: 66°   Ceiling: 5000
Heat Index: 66°   Visibility: 10mi
Dew Point: 46°   Wind: 7mph
Humidity: 49%   Direction: 130°SE
Pressure: 30.17"   Gusts: NA
Location:  31.1912°N, 97.0719°W
Report Text: KTPL 301555Z AUTO 13006KT 10SM FEW043 BKN050 19/08 A3017 RMK AO1
Loading
Personal Weather Stations






























Interactive Weather Map
Tropical Storm Tracking
New forecast layout! Learn more

10-Day Weather Forecast

Advertisements
Track Severe Weather on mobile